Pasadena, Texas
Current Conditions -  °F | °C
As of 7:50 AM on Saturday 20 Dec 2014 (Local Time) from KEFD Reporting Station
Overcast Overcast  
Wind Chill: 52°   Ceiling: 700
Heat Index: 52°   Visibility: 7mi
Dew Point: 50°   Wind: 10mph
Humidity: 94%   Direction: 20°NNE
Pressure: 30.2"   Gusts: NA
Location:  29.69°N, 95.2°W
Report Text: KEFD 201350Z 02009KT 7SM OVC007 11/10 A3020
Loading
Personal Weather Stations






























Interactive Weather Map New forecast layout! Learn more

10-Day Weather Forecast

Advertisements
Track Severe Weather on mobile